Time;durP1;ratioP1;P1;durP2;ratioP2;P2;SDS_P1;SDS_P2;PMS_P1;PMS_P2;Temp;Humidity;BMP_temperature;BMP_pressure;BME280_temperature;BME280_humidity;BME280_pressure;Samples;Min_cycle;Max_cycle;Signal;HPM_P1;HPM_P2
2021/10/30 00:00:04;;;;;;;;;14.00;9.75;;;;;14.98;58.23;101587.50;146623;677;46020;-79
2021/10/30 00:02:38;;;;;;;;;10.00;10.00;;;;;14.98;58.37;101586.56;146622;652;46012;-76
2021/10/30 00:05:14;;;;;;;;;13.00;13.00;;;;;14.97;58.25;101585.69;146622;570;46020;-74
2021/10/30 00:07:48;;;;;;;;;14.00;13.50;;;;;14.98;58.65;101586.56;146623;610;46012;-75
2021/10/30 00:10:24;;;;;;;;;10.50;10.50;;;;;14.99;58.49;101583.16;146625;601;46010;-78
2021/10/30 00:12:58;;;;;;;;;11.50;10.50;;;;;15.01;58.33;101591.94;146620;662;46016;-76
2021/10/30 00:15:36;;;;;;;;;15.00;12.75;;;;;15.00;58.69;101592.78;146620;595;46021;-75
2021/10/30 00:18:10;;;;;;;;;9.75;9.75;;;;;15.01;58.48;101591.94;146621;608;46012;-75
2021/10/30 00:20:44;;;;;;;;;11.25;10.25;;;;;14.98;58.58;101590.09;146622;572;45021;-76
2021/10/30 00:23:18;;;;;;;;;11.50;10.50;;;;;14.98;58.67;101582.28;146620;577;46020;-75
2021/10/30 00:25:52;;;;;;;;;14.25;13.00;;;;;14.96;58.95;101580.41;146624;570;46014;-81
2021/10/30 00:28:25;;;;;;;;;13.50;12.50;;;;;14.94;58.32;101574.19;146622;743;46012;-79
2021/10/30 00:30:59;;;;;;;;;11.00;11.00;;;;;14.92;58.70;101575.84;146623;578;45020;-80
2021/10/30 00:33:33;;;;;;;;;13.00;12.50;;;;;14.92;58.65;101574.16;146619;593;45020;-81
2021/10/30 00:36:08;;;;;;;;;14.75;12.00;;;;;14.93;58.43;101575.94;146623;608;45021;-79
2021/10/30 00:38:42;;;;;;;;;11.75;11.00;;;;;14.94;58.44;101574.19;146623;633;45040;-80
2021/10/30 00:41:17;;;;;;;;;12.50;12.00;;;;;14.95;58.65;101570.75;146620;591;46020;-86
2021/10/30 00:43:51;;;;;;;;;13.50;12.50;;;;;14.93;58.70;101568.09;146621;626;45017;-78
2021/10/30 00:46:25;;;;;;;;;18.00;16.00;;;;;14.92;58.85;101578.44;146623;606;46010;-79
2021/10/30 00:48:59;;;;;;;;;16.25;13.75;;;;;14.92;58.66;101565.37;146619;608;45020;-80
2021/10/30 00:51:38;;;;;;;;;15.00;12.50;;;;;14.88;59.16;101574.81;146623;566;45021;-80
2021/10/30 00:54:14;;;;;;;;;13.00;12.75;;;;;14.86;58.57;101578.16;146617;598;46909;-84
2021/10/30 00:56:49;;;;;;;;;16.50;12.50;;;;;14.86;58.12;101576.47;146621;739;45020;-80
2021/10/30 00:59:25;;;;;;;;;17.25;13.50;;;;;14.87;58.17;101579.97;146621;612;46012;-79
2021/10/30 01:01:59;;;;;;;;;15.50;14.75;;;;;14.85;57.89;101576.37;146623;610;46020;-76
2021/10/30 01:04:34;;;;;;;;;12.50;11.50;;;;;14.86;58.26;101575.53;146622;645;46012;-75
2021/10/30 01:07:09;;;;;;;;;14.50;10.75;;;;;14.84;57.74;101565.03;146625;566;45020;-77
2021/10/30 01:09:44;;;;;;;;;16.25;14.50;;;;;14.85;58.10;101564.22;146622;563;46012;-78
2021/10/30 01:12:18;;;;;;;;;17.50;17.00;;;;;14.87;59.12;101566.91;146621;615;46020;-79
2021/10/30 01:14:53;;;;;;;;;24.75;16.50;;;;;14.84;58.68;101569.37;146620;592;45016;-80
2021/10/30 01:17:27;;;;;;;;;14.75;13.75;;;;;14.81;58.62;101569.22;146625;564;45020;-78
2021/10/30 01:20:01;;;;;;;;;16.25;14.50;;;;;14.75;58.97;101565.50;146622;604;45017;-77
2021/10/30 01:22:36;;;;;;;;;15.25;15.25;;;;;14.72;59.01;101564.47;146624;614;46020;-84
2021/10/30 01:25:10;;;;;;;;;20.50;17.00;;;;;14.70;58.91;101569.63;146620;602;46016;-79
2021/10/30 01:27:49;;;;;;;;;19.50;17.25;;;;;14.72;58.98;101557.53;146620;581;46021;-78
2021/10/30 01:30:24;;;;;;;;;18.00;16.00;;;;;14.72;58.69;101556.63;146620;610;45020;-78
2021/10/30 01:33:09;;;;;;;;;21.50;17.25;;;;;14.72;58.94;101560.13;146623;593;45020;-78
2021/10/30 01:35:44;;;;;;;;;19.00;17.75;;;;;14.72;59.25;101562.75;146620;739;46016;-81
2021/10/30 01:38:19;;;;;;;;;16.50;14.75;;;;;14.71;59.85;101560.97;146621;652;46012;-78
2021/10/30 01:40:54;;;;;;;;;15.50;13.75;;;;;14.69;58.74;101562.59;146619;576;46016;-78
2021/10/30 01:43:29;;;;;;;;;20.00;17.00;;;;;14.70;58.85;101561.78;146622;583;46023;-76
2021/10/30 01:46:02;;;;;;;;;16.75;15.75;;;;;14.70;58.62;101553.03;146618;624;46016;-74
2021/10/30 01:48:41;;;;;;;;;23.25;20.75;;;;;14.71;58.30;101560.97;146624;625;45020;-77
2021/10/30 01:51:16;;;;;;;;;22.50;18.25;;;;;14.73;58.61;101559.28;146618;576;46021;-78
2021/10/30 01:53:51;;;;;;;;;23.00;18.50;;;;;14.73;58.66;101564.53;146621;628;45020;-79
2021/10/30 01:56:25;;;;;;;;;15.75;15.00;;;;;14.76;58.25;101559.44;146624;569;45032;-77
2021/10/30 01:58:59;;;;;;;;;21.25;18.75;;;;;14.77;58.70;101562.97;146622;619;46014;-82
2021/10/30 02:01:34;;;;;;;;;19.75;18.00;;;;;14.78;58.71;101557.81;146620;633;45016;-82
2021/10/30 02:04:08;;;;;;;;;18.25;17.00;;;;;14.81;58.12;101566.63;146622;652;46015;-82
2021/10/30 02:06:42;;;;;;;;;18.25;18.00;;;;;14.82;58.38;101565.78;146620;577;46016;-75
2021/10/30 02:09:15;;;;;;;;;16.50;13.00;;;;;14.84;57.74;101565.03;146624;571;45020;-75
2021/10/30 02:11:49;;;;;;;;;18.00;17.00;;;;;14.85;57.07;101563.31;146621;576;46020;-70
2021/10/30 02:14:23;;;;;;;;;15.50;15.00;;;;;14.87;55.89;101562.56;146621;579;45021;-77
2021/10/30 02:16:57;;;;;;;;;17.25;13.75;;;;;14.92;55.86;101562.78;146618;659;46016;-76
2021/10/30 02:19:31;;;;;;;;;15.75;14.00;;;;;14.96;55.96;101556.91;146624;619;45020;-77
2021/10/30 02:22:05;;;;;;;;;12.25;10.00;;;;;15.01;56.06;101565.81;146619;567;45910;-78
2021/10/30 02:24:42;;;;;;;;;17.75;16.75;;;;;15.01;56.21;101550.16;146631;608;45014;-78
2021/10/30 02:27:16;;;;;;;;;18.75;17.50;;;;;15.04;56.69;101559.84;146618;613;46016;-77
2021/10/30 02:29:50;;;;;;;;;18.00;15.75;;;;;15.06;56.34;101564.31;146621;586;45020;-73
2021/10/30 02:32:24;;;;;;;;;22.50;17.50;;;;;15.06;56.67;101559.09;146619;629;46016;-72
2021/10/30 02:34:58;;;;;;;;;19.50;19.00;;;;;15.06;57.00;101559.09;146624;593;46021;-73
2021/10/30 02:37:43;;;;;;;;;16.25;16.25;;;;;15.06;57.18;101559.09;146621;604;46016;-73
2021/10/30 02:40:19;;;;;;;;;16.00;15.25;;;;;15.05;56.68;101561.66;146630;616;45020;-73
2021/10/30 02:42:53;;;;;;;;;16.00;15.75;;;;;15.04;56.38;101560.75;146619;578;45908;-73
2021/10/30 02:45:27;;;;;;;;;12.25;11.00;;;;;15.01;56.67;101556.28;146622;572;45046;-72
2021/10/30 02:48:06;;;;;;;;;18.25;18.00;;;;;15.01;56.81;101555.37;146620;595;46012;-72
2021/10/30 02:50:40;;;;;;;;;16.75;15.00;;;;;15.00;56.88;101564.03;146622;654;45020;-73
2021/10/30 02:53:14;;;;;;;;;15.25;13.50;;;;;14.98;57.47;101560.44;146617;592;45907;-77
2021/10/30 02:55:48;;;;;;;;;14.75;14.25;;;;;14.98;57.21;101561.38;146620;605;46022;-77
2021/10/30 02:58:26;;;;;;;;;18.50;15.50;;;;;14.97;57.32;101556.97;146621;566;46016;-77
2021/10/30 03:01:00;;;;;;;;;16.25;16.00;;;;;14.91;57.84;101543.59;146623;578;46020;-80
2021/10/30 03:03:34;;;;;;;;;16.75;15.50;;;;;14.95;57.24;101555.09;146620;711;46013;-77
2021/10/30 03:06:08;;;;;;;;;14.75;14.25;;;;;14.95;57.63;101562.91;146623;581;45021;-79
2021/10/30 03:08:42;;;;;;;;;14.75;13.25;;;;;14.95;57.41;101555.09;146620;571;46012;-73
2021/10/30 03:11:17;;;;;;;;;15.75;14.50;;;;;14.96;57.48;101560.41;146620;597;45021;-74
2021/10/30 03:13:50;;;;;;;;;21.75;19.50;;;;;14.94;57.87;101562.03;146622;691;46016;-73
2021/10/30 03:16:24;;;;;;;;;21.50;19.75;;;;;14.87;57.94;101557.34;146620;573;45020;-73
2021/10/30 03:18:58;;;;;;;;;21.25;20.00;;;;;14.83;57.73;101562.34;146619;578;46020;-73
2021/10/30 03:21:32;;;;;;;;;21.00;16.25;;;;;14.82;58.60;101568.41;146622;612;45020;-73
2021/10/30 03:24:06;;;;;;;;;20.75;18.50;;;;;14.79;58.49;101562.19;146619;603;45020;-73
2021/10/30 03:26:40;;;;;;;;;19.25;18.25;;;;;14.82;58.46;101568.41;146621;589;45021;-73
2021/10/30 03:29:14;;;;;;;;;19.75;17.75;;;;;14.83;58.40;101562.34;146619;611;45025;-72
2021/10/30 03:31:48;;;;;;;;;21.75;16.25;;;;;14.82;58.23;101565.78;146625;588;45024;-74
2021/10/30 03:34:22;;;;;;;;;14.75;14.75;;;;;14.83;58.24;101571.09;146619;583;46016;-75
2021/10/30 03:36:56;;;;;;;;;16.25;16.00;;;;;14.83;58.28;101563.28;146623;632;45050;-75
2021/10/30 03:39:30;;;;;;;;;22.50;19.00;;;;;14.81;58.84;101567.50;146620;589;46908;-76
2021/10/30 03:42:03;;;;;;;;;14.00;12.75;;;;;14.81;58.77;101567.50;146624;569;45021;-75
2021/10/30 03:44:38;;;;;;;;;17.50;16.75;;;;;14.81;58.88;101567.50;146619;594;46016;-75
2021/10/30 03:47:12;;;;;;;;;18.25;15.50;;;;;14.80;59.16;101563.13;146621;594;46020;-76
2021/10/30 03:49:46;;;;;;;;;18.00;17.25;;;;;14.81;59.39;101562.28;146620;570;45017;-76
2021/10/30 03:52:20;;;;;;;;;26.75;21.75;;;;;14.80;59.30;101563.13;146624;635;45020;-76
2021/10/30 03:54:54;;;;;;;;;24.00;22.50;;;;;14.79;59.04;101564.81;146617;677;46016;-76
2021/10/30 03:57:28;;;;;;;;;22.25;21.00;;;;;14.79;59.08;101562.19;146619;632;46021;-77
2021/10/30 04:00:02;;;;;;;;;16.50;16.50;;;;;14.78;58.36;101563.03;146617;589;46016;-80
2021/10/30 04:02:36;;;;;;;;;16.25;13.50;;;;;14.80;58.57;101565.72;146625;609;45020;-81
2021/10/30 04:05:13;;;;;;;;;23.75;22.25;;;;;14.76;60.24;101567.28;146621;603;46012;-72
2021/10/30 04:07:47;;;;;;;;;19.75;17.75;;;;;14.71;59.24;101575.72;146624;633;45020;-76
2021/10/30 04:10:21;;;;;;;;;20.50;19.50;;;;;14.66;59.43;101566.78;146617;564;46017;-76
2021/10/30 04:12:55;;;;;;;;;16.50;12.25;;;;;14.64;58.74;101571.94;146621;619;46020;-76
2021/10/30 04:15:29;;;;;;;;;22.25;19.25;;;;;14.64;59.04;101566.72;146620;626;46016;-76
2021/10/30 04:18:03;;;;;;;;;16.75;15.00;;;;;14.65;59.02;101557.16;146623;574;45021;-75
2021/10/30 04:20:37;;;;;;;;;12.25;11.75;;;;;14.64;59.81;101553.66;146620;706;46012;-71
2021/10/30 04:23:11;;;;;;;;;19.25;17.50;;;;;14.65;59.27;101563.28;146623;578;45020;-71
2021/10/30 04:25:44;;;;;;;;;16.25;12.25;;;;;14.68;58.83;101563.44;146618;570;46017;-71
2021/10/30 04:28:19;;;;;;;;;13.50;12.00;;;;;14.71;59.66;101570.50;146626;609;45020;-74
2021/10/30 04:30:53;;;;;;;;;19.75;17.50;;;;;14.73;59.95;101571.47;146618;584;45020;-76
2021/10/30 04:33:31;;;;;;;;;17.25;16.00;;;;;14.70;59.54;101560.88;146625;565;46012;-77
2021/10/30 04:36:14;;;;;;;;;16.25;14.25;;;;;14.70;59.60;101567.00;146620;565;45018;-75
2021/10/30 04:38:49;;;;;;;;;13.50;13.00;;;;;14.72;60.18;101560.13;146627;697;45014;-77
2021/10/30 04:41:24;;;;;;;;;14.50;14.00;;;;;14.75;60.05;101562.00;146624;597;45014;-78
2021/10/30 04:43:58;;;;;;;;;17.75;14.50;;;;;14.76;60.41;101564.66;146622;613;46020;-79
2021/10/30 04:46:32;;;;;;;;;17.00;16.00;;;;;14.77;59.90;101570.81;146623;574;45020;-80
2021/10/30 04:49:07;;;;;;;;;14.00;13.50;;;;;14.73;59.85;101568.84;146621;590;46020;-82
2021/10/30 04:51:41;;;;;;;;;12.50;12.50;;;;;14.72;59.78;101570.56;146621;601;46012;-80
2021/10/30 04:54:14;;;;;;;;;19.00;17.00;;;;;14.76;60.09;101575.09;146625;578;46010;-78
2021/10/30 04:56:48;;;;;;;;;21.75;18.25;;;;;14.77;60.20;101576.91;146623;610;45017;-80
2021/10/30 04:59:22;;;;;;;;;18.00;17.00;;;;;14.79;60.41;101575.25;146624;604;45020;-80
2021/10/30 05:01:56;;;;;;;;;19.00;16.25;;;;;14.84;60.27;101577.22;146622;578;45896;-78
2021/10/30 05:04:30;;;;;;;;;17.75;15.00;;;;;14.85;61.48;101577.25;146622;604;45020;-76
2021/10/30 05:07:04;;;;;;;;;20.75;17.75;;;;;14.85;60.44;101574.66;146620;642;46016;-78
2021/10/30 05:09:38;;;;;;;;;17.00;14.00;;;;;14.82;60.46;101568.41;146622;580;45021;-79
2021/10/30 05:12:12;;;;;;;;;18.00;17.50;;;;;14.82;60.48;101574.50;146621;672;46012;-81
2021/10/30 05:14:46;;;;;;;;;18.75;17.50;;;;;14.83;60.86;101570.19;146625;683;45020;-81
2021/10/30 05:17:20;;;;;;;;;22.50;18.25;;;;;14.84;61.20;101566.78;146622;606;45017;-73
2021/10/30 05:19:54;;;;;;;;;20.50;19.00;;;;;14.81;60.95;101575.34;146628;583;45014;-73
2021/10/30 05:22:28;;;;;;;;;20.75;19.75;;;;;14.76;60.58;101574.22;146618;685;46016;-74
2021/10/30 05:25:02;;;;;;;;;28.00;24.00;;;;;14.70;61.10;101568.69;146624;571;45029;-74
2021/10/30 05:27:36;;;;;;;;;21.25;20.75;;;;;14.68;61.48;101571.25;146622;570;46012;-73
2021/10/30 05:30:10;;;;;;;;;24.25;20.25;;;;;14.64;61.38;101576.25;146626;571;46020;-74
2021/10/30 05:32:44;;;;;;;;;23.25;19.75;;;;;14.63;61.25;101571.84;146617;606;45019;-71
2021/10/30 05:35:18;;;;;;;;;23.50;20.00;;;;;14.62;60.86;101572.69;146626;565;46020;-72
2021/10/30 05:37:52;;;;;;;;;20.00;19.75;;;;;14.61;60.53;101577.00;146621;590;46012;-71
2021/10/30 05:40:25;;;;;;;;;24.00;21.50;;;;;14.62;60.97;101577.91;146623;588;46008;-72
2021/10/30 05:42:59;;;;;;;;;21.00;20.50;;;;;14.61;61.17;101581.31;146621;651;45020;-71
2021/10/30 05:45:33;;;;;;;;;25.00;22.75;;;;;14.59;61.25;101578.63;146624;587;45020;-77
2021/10/30 05:48:08;;;;;;;;;19.50;18.75;;;;;14.59;61.39;101572.53;146618;659;46016;-77
2021/10/30 05:50:42;;;;;;;;;22.00;21.00;;;;;14.63;61.27;101588.41;146624;606;45020;-77
2021/10/30 05:53:16;;;;;;;;;35.50;30.50;;;;;14.61;61.38;101592.69;146621;664;45017;-78
2021/10/30 05:55:50;;;;;;;;;31.50;29.00;;;;;14.62;61.21;101585.72;146621;602;46020;-78
2021/10/30 05:58:24;;;;;;;;;25.75;23.25;;;;;14.62;61.03;101594.44;146616;627;46016;-80
2021/10/30 06:00:58;;;;;;;;;30.75;27.25;;;;;14.64;61.85;101585.00;146623;564;46015;-74
2021/10/30 06:03:32;;;;;;;;;34.75;29.50;;;;;14.67;62.11;101579.91;146618;627;46012;-75
2021/10/30 06:06:06;;;;;;;;;42.75;34.25;;;;;14.67;61.09;101579.91;146624;652;45049;-76
2021/10/30 06:08:40;;;;;;;;;46.50;37.00;;;;;14.69;61.20;101590.41;146625;566;46012;-75
2021/10/30 06:11:14;;;;;;;;;46.25;37.00;;;;;14.70;61.23;101593.13;146623;583;46010;-75
2021/10/30 06:13:48;;;;;;;;;53.00;43.00;;;;;14.71;62.27;101584.47;146620;570;45042;-76
2021/10/30 06:16:22;;;;;;;;;53.75;41.50;;;;;14.72;62.21;101599.28;146626;700;45014;-75
2021/10/30 06:18:56;;;;;;;;;51.50;41.75;;;;;14.71;61.43;101586.19;146622;565;45020;-75
2021/10/30 06:21:30;;;;;;;;;48.00;38.75;;;;;14.71;62.18;101594.00;146621;563;45020;-75
2021/10/30 06:24:04;;;;;;;;;52.75;41.75;;;;;14.71;61.69;101600.13;146620;630;46013;-83
2021/10/30 06:26:38;;;;;;;;;56.25;47.00;;;;;14.71;62.00;101613.16;146627;627;46020;-81
2021/10/30 06:29:12;;;;;;;;;57.00;44.25;;;;;14.69;61.77;101608.69;146618;582;46016;-78
2021/10/30 06:31:46;;;;;;;;;56.50;43.75;;;;;13.73;62.41;101443.06;146627;577;45021;-80
2021/10/30 06:34:20;;;;;;;;;50.00;40.75;;;;;14.72;62.40;101614.94;146621;610;45020;-81
2021/10/30 06:36:54;;;;;;;;;47.25;39.75;;;;;14.74;62.81;101605.50;146624;778;45020;-80
2021/10/30 06:39:29;;;;;;;;;52.00;43.00;;;;;14.75;63.46;101607.28;146619;577;46021;-75
2021/10/30 06:42:03;;;;;;;;;51.00;40.00;;;;;14.75;63.63;101601.16;146624;622;46014;-80
2021/10/30 06:44:37;;;;;;;;;55.75;42.75;;;;;14.76;62.23;101616.00;146623;591;45017;-77
2021/10/30 06:47:11;;;;;;;;;50.25;39.75;;;;;14.74;62.10;101615.94;146625;595;45026;-78
2021/10/30 06:49:48;;;;;;;;;38.25;34.00;;;;;14.78;61.50;101623.09;146618;616;46018;-78
2021/10/30 06:52:22;;;;;;;;;36.75;32.00;;;;;14.82;62.01;101621.50;146627;597;46012;-80
2021/10/30 06:54:56;;;;;;;;;47.25;36.75;;;;;14.86;62.11;101606.87;146620;630;46012;-76
2021/10/30 06:57:30;;;;;;;;;60.75;48.00;;;;;14.87;61.98;101612.19;146625;717;46020;-71
2021/10/30 07:00:05;;;;;;;;;50.50;40.00;;;;;14.86;61.96;101618.25;146619;583;48018;-80
2021/10/30 07:02:40;;;;;;;;;34.75;30.50;;;;;14.84;62.22;101632.03;146621;662;46020;-84
2021/10/30 07:05:14;;;;;;;;;26.00;24.00;;;;;14.85;60.33;101624.28;146619;599;45018;-72
2021/10/30 07:07:48;;;;;;;;;32.75;28.25;;;;;14.89;61.46;101621.00;146625;570;45021;-80
2021/10/30 07:10:23;;;;;;;;;29.25;25.50;;;;;14.93;61.62;101614.22;146621;570;46908;-81
2021/10/30 07:12:57;;;;;;;;;30.50;29.25;;;;;14.97;61.08;101621.34;146628;644;46012;-78
2021/10/30 07:15:31;;;;;;;;;21.00;19.25;;;;;15.01;60.79;101634.66;146622;581;46013;-77
2021/10/30 07:18:05;;;;;;;;;18.50;17.50;;;;;15.07;60.82;101633.13;146620;579;46020;-77
2021/10/30 07:20:39;;;;;;;;;15.00;14.00;;;;;15.11;60.71;101624.59;146620;615;46012;-80
2021/10/30 07:23:12;;;;;;;;;31.50;29.00;;;;;14.20;61.08;101452.31;146626;584;46010;-81
2021/10/30 07:25:46;;;;;;;;;34.50;31.25;;;;;15.20;61.22;101630.25;146617;665;46016;-79
2021/10/30 07:28:20;;;;;;;;;40.50;32.50;;;;;15.23;61.24;101633.03;146623;604;45020;-73
2021/10/30 07:30:54;;;;;;;;;34.75;29.00;;;;;15.22;60.70;101636.47;146621;581;46012;-75
2021/10/30 07:33:28;;;;;;;;;27.25;25.25;;;;;15.21;60.52;101638.19;146622;591;45020;-75
2021/10/30 07:36:02;;;;;;;;;21.50;21.25;;;;;15.18;60.87;101631.94;146620;578;45018;-77
2021/10/30 07:38:36;;;;;;;;;22.25;20.50;;;;;15.15;61.18;101632.69;146620;632;45021;-76
2021/10/30 07:41:11;;;;;;;;;22.25;21.00;;;;;15.11;61.28;101627.22;146618;570;45018;-71
2021/10/30 07:43:44;;;;;;;;;23.25;18.75;;;;;15.05;61.13;101629.56;146626;573;46020;-78
2021/10/30 07:46:18;;;;;;;;;21.00;20.00;;;;;15.01;60.57;101633.72;146623;565;46017;-80
2021/10/30 07:48:53;;;;;;;;;23.00;19.25;;;;;14.99;60.96;101638.00;146621;612;46020;-77
2021/10/30 07:51:27;;;;;;;;;23.50;23.00;;;;;14.93;62.10;101650.78;146620;604;45017;-76
2021/10/30 07:54:02;;;;;;;;;22.25;18.75;;;;;14.88;61.63;101644.41;146621;600;45021;-75
2021/10/30 07:56:38;;;;;;;;;16.25;14.50;;;;;14.85;60.92;101639.94;146620;598;46012;-74
2021/10/30 07:59:13;;;;;;;;;24.25;22.25;;;;;14.89;60.89;101646.19;146625;566;45020;-75
2021/10/30 08:01:50;;;;;;;;;24.00;19.50;;;;;14.75;61.10;101609.00;146619;570;46908;-76
2021/10/30 08:04:27;;;;;;;;;27.25;22.75;;;;;14.98;61.83;101644.03;146623;597;45050;-73
2021/10/30 08:07:01;;;;;;;;;29.75;29.00;;;;;15.01;60.98;101641.56;146621;643;45041;-73
2021/10/30 08:09:35;;;;;;;;;36.00;30.50;;;;;15.06;61.43;101650.53;146626;646;45031;-74
2021/10/30 08:12:10;;;;;;;;;29.50;28.00;;;;;15.10;61.35;101646.34;146617;600;46016;-73
2021/10/30 08:14:44;;;;;;;;;28.25;26.50;;;;;15.13;61.83;101641.25;146627;627;45021;-73
2021/10/30 08:17:18;;;;;;;;;26.75;25.50;;;;;15.15;61.79;101642.25;146622;629;45016;-73
2021/10/30 08:19:52;;;;;;;;;29.50;26.75;;;;;15.16;61.55;101644.00;146624;566;45020;-73
2021/10/30 08:22:26;;;;;;;;;32.00;27.50;;;;;15.19;61.78;101647.66;146618;649;45021;-73
2021/10/30 08:25:00;;;;;;;;;26.75;23.75;;;;;15.23;62.08;101641.78;146624;591;45020;-73
2021/10/30 08:27:34;;;;;;;;;35.50;30.00;;;;;15.25;62.08;101632.28;146622;605;45016;-73
2021/10/30 08:30:09;;;;;;;;;35.75;29.00;;;;;15.16;61.47;101607.44;146621;644;46010;-73
2021/10/30 08:32:43;;;;;;;;;34.25;30.75;;;;;15.32;61.38;101637.78;146626;567;46012;-73
2021/10/30 08:35:17;;;;;;;;;37.50;33.75;;;;;15.32;60.70;101635.19;146622;636;46015;-73
2021/10/30 08:37:51;;;;;;;;;41.00;34.00;;;;;15.32;60.89;101638.69;146617;570;47908;-73
2021/10/30 08:40:25;;;;;;;;;33.00;29.25;;;;;15.29;61.30;101630.69;146624;577;45020;-73
2021/10/30 08:42:59;;;;;;;;;36.25;31.00;;;;;15.28;61.62;101634.16;146618;567;45020;-74
2021/10/30 08:45:36;;;;;;;;;43.50;35.25;;;;;15.30;61.83;101629.00;146622;580;46014;-73
2021/10/30 08:48:10;;;;;;;;;39.75;33.50;;;;;15.33;61.99;101634.38;146617;660;47020;-73
2021/10/30 08:50:44;;;;;;;;;33.25;31.50;;;;;15.34;61.11;101641.38;146622;570;45021;-73
2021/10/30 08:53:18;;;;;;;;;47.25;38.25;;;;;15.35;61.24;101646.66;146620;581;46012;-74
2021/10/30 08:55:53;;;;;;;;;39.50;32.25;;;;;15.37;60.71;101631.06;146621;569;45020;-73
2021/10/30 08:58:27;;;;;;;;;45.25;37.25;;;;;15.37;60.92;101624.13;146619;576;46020;-73
2021/10/30 09:01:13;;;;;;;;;40.00;33.25;;;;;15.38;61.29;101619.78;146620;565;46014;-73
2021/10/30 09:03:57;;;;;;;;;28.50;26.00;;;;;15.36;61.02;101622.34;146621;607;45016;-73
2021/10/30 09:06:47;;;;;;;;;26.75;24.75;;;;;15.37;60.74;101628.44;146621;580;46014;-73
2021/10/30 09:09:22;;;;;;;;;40.75;31.50;;;;;15.36;60.41;101626.69;146619;585;46020;-73
2021/10/30 09:11:59;;;;;;;;;42.25;34.50;;;;;15.36;60.82;101630.19;146620;737;46020;-73
2021/10/30 09:14:36;;;;;;;;;35.25;29.75;;;;;15.37;60.59;101638.91;146617;628;46017;-73
2021/10/30 09:17:22;;;;;;;;;38.25;30.25;;;;;15.37;60.55;101629.34;146622;734;45020;-73
2021/10/30 09:19:58;;;;;;;;;30.25;27.75;;;;;15.37;60.65;101625.84;146617;576;46016;-73
2021/10/30 09:22:31;;;;;;;;;26.50;25.00;;;;;15.38;61.15;101623.28;146622;577;46021;-74
2021/10/30 09:25:11;;;;;;;;;31.00;26.75;;;;;15.39;61.06;101626.78;146622;575;45035;-73
2021/10/30 09:28:04;;;;;;;;;36.00;31.25;;;;;15.40;61.12;101618.16;146624;564;46020;-73
2021/10/30 09:30:40;;;;;;;;;34.50;30.75;;;;;15.37;61.09;101620.63;146621;688;46012;-74
2021/10/30 09:33:14;;;;;;;;;34.25;31.50;;;;;15.37;61.78;101631.97;146626;746;46020;-73
2021/10/30 09:35:51;;;;;;;;;49.00;39.00;;;;;15.36;62.17;101631.91;146621;633;46013;-73
2021/10/30 09:38:35;;;;;;;;;49.00;36.50;;;;;15.33;61.86;101623.91;146623;699;46014;-73
2021/10/30 09:41:24;;;;;;;;;48.75;38.50;;;;;15.31;62.58;101616.00;146617;599;46016;-73
2021/10/30 09:44:07;;;;;;;;;43.50;33.75;;;;;15.31;63.34;101610.78;146622;565;45021;-73
2021/10/30 09:46:55;;;;;;;;;40.00;32.50;;;;;15.32;63.48;101615.16;146617;570;46016;-74
2021/10/30 09:49:32;;;;;;;;;39.75;34.25;;;;;15.34;62.69;101613.53;146623;582;45020;-74
2021/10/30 09:52:18;;;;;;;;;48.50;38.00;;;;;14.64;63.60;101479.66;146620;564;45908;-74
2021/10/30 09:54:52;;;;;;;;;46.25;37.50;;;;;15.37;63.41;101600.59;146623;609;46010;-73
2021/10/30 09:57:32;;;;;;;;;44.25;34.50;;;;;15.38;62.61;101599.75;146621;599;45041;-74
2021/10/30 10:00:08;;;;;;;;;40.75;34.00;;;;;15.39;63.58;101598.97;146621;572;45021;-73
2021/10/30 10:02:43;;;;;;;;;48.00;40.25;;;;;15.40;65.42;101597.25;146619;575;45031;-74
2021/10/30 10:05:18;;;;;;;;;46.50;37.75;;;;;15.39;65.81;101595.44;146621;595;46021;-73
2021/10/30 10:07:54;;;;;;;;;44.50;34.50;;;;;15.36;65.10;101595.31;146616;584;46016;-74
2021/10/30 10:10:28;;;;;;;;;42.25;34.50;;;;;15.32;64.52;101594.25;146622;577;45020;-76
2021/10/30 10:13:02;;;;;;;;;41.75;34.50;;;;;15.33;65.79;101585.63;146622;594;45034;-75
2021/10/30 10:15:36;;;;;;;;;35.25;32.25;;;;;15.35;65.67;101583.94;146620;569;46020;-75
2021/10/30 10:18:11;;;;;;;;;41.75;34.25;;;;;15.37;66.17;101579.69;146622;618;46012;-75
2021/10/30 10:20:45;;;;;;;;;43.75;34.50;;;;;15.37;65.46;101571.84;146621;564;46021;-74
2021/10/30 10:23:22;;;;;;;;;52.00;41.50;;;;;15.34;64.31;101568.22;146618;665;45908;-74
2021/10/30 10:25:59;;;;;;;;;51.00;42.00;;;;;15.15;64.15;101542.97;146623;629;46020;-74
2021/10/30 10:28:38;;;;;;;;;54.75;42.75;;;;;14.77;64.53;101477.72;146622;567;46908;-74
2021/10/30 10:31:27;;;;;;;;;44.75;37.25;;;;;15.28;64.19;101566.22;146624;614;46008;-74
2021/10/30 10:34:15;;;;;;;;;47.00;38.75;;;;;15.30;64.29;101579.34;146622;721;45908;-74
2021/10/30 10:36:52;;;;;;;;;53.00;41.00;;;;;15.29;65.83;101567.09;146623;602;46010;-74
2021/10/30 10:39:26;;;;;;;;;41.00;35.25;;;;;15.25;65.88;101566.97;146622;604;46012;-75
2021/10/30 10:42:01;;;;;;;;;46.00;38.00;;;;;15.24;65.50;101564.28;146626;595;45020;-74
2021/10/30 10:44:59;;;;;;;;;46.75;38.00;;;;;14.38;64.38;101405.34;146620;661;46021;-74
2021/10/30 10:47:57;;;;;;;;;46.50;37.75;;;;;15.32;64.55;101556.78;146622;607;45020;-74
2021/10/30 10:50:37;;;;;;;;;45.00;37.50;;;;;15.38;65.20;101560.56;146620;594;46012;-74
2021/10/30 10:53:16;;;;;;;;;47.25;37.50;;;;;15.30;66.10;101527.09;146622;563;46014;-74
2021/10/30 10:56:11;;;;;;;;;49.25;40.00;;;;;14.99;63.55;101466.53;146623;633;45033;-75
2021/10/30 10:59:07;;;;;;;;;52.25;42.25;;;;;15.58;63.16;101552.75;146622;706;46021;-74
2021/10/30 11:01:42;;;;;;;;;55.75;44.50;;;;;15.63;64.51;101553.81;146618;585;46012;-74
2021/10/30 11:04:17;;;;;;;;;53.00;41.75;;;;;15.53;64.02;101512.41;146623;594;45020;-74
2021/10/30 11:06:51;;;;;;;;;46.25;37.75;;;;;15.73;62.92;101537.72;146620;602;45021;-74
2021/10/30 11:09:24;;;;;;;;;47.75;38.75;;;;;15.76;63.45;101534.34;146624;604;45020;-74
2021/10/30 11:12:28;;;;;;;;;49.75;39.00;;;;;15.56;62.46;101489.91;146617;628;46016;-74
2021/10/30 11:15:13;;;;;;;;;46.50;34.50;;;;;15.79;62.03;101524.03;146619;647;45020;-74
2021/10/30 11:18:05;;;;;;;;;34.50;31.00;;;;;15.80;62.35;101526.72;146618;579;45020;-74
2021/10/30 11:20:50;;;;;;;;;32.50;27.50;;;;;15.84;61.37;101533.88;146620;577;46021;-75
2021/10/30 11:23:31;;;;;;;;;36.75;32.25;;;;;15.85;61.13;101534.75;146622;637;45032;-75
2021/10/30 11:26:14;;;;;;;;;43.00;34.75;;;;;15.82;61.51;101526.78;146627;570;46020;-74
2021/10/30 11:28:48;;;;;;;;;35.00;30.00;;;;;15.77;61.61;101529.22;146618;592;46016;-74
2021/10/30 11:31:29;;;;;;;;;39.25;31.75;;;;;15.74;61.35;101520.34;146625;620;45030;-74
2021/10/30 11:34:08;;;;;;;;;42.25;35.50;;;;;15.72;61.51;101512.41;146620;592;45017;-74
2021/10/30 11:36:46;;;;;;;;;41.50;34.25;;;;;15.72;62.18;101516.75;146627;575;46020;-74
2021/10/30 11:39:20;;;;;;;;;43.25;36.00;;;;;15.71;62.50;101513.25;146621;577;45016;-74
2021/10/30 11:41:54;;;;;;;;;46.25;36.00;;;;;15.72;62.54;101507.19;146627;615;45021;-74
2021/10/30 11:44:28;;;;;;;;;26.25;24.00;;;;;15.70;60.52;101499.28;146621;635;46012;-75
2021/10/30 11:47:03;;;;;;;;;32.50;30.00;;;;;15.69;61.17;101510.56;146624;637;46010;-75